Time;durP1;ratioP1;P1;durP2;ratioP2;P2;SDS_P1;SDS_P2;PMS_P1;PMS_P2;Temp;Humidity;BMP_temperature;BMP_pressure;BME280_temperature;BME280_humidity;BME280_pressure;Samples;Min_cycle;Max_cycle;Signal;HPM_P1;HPM_P2
2022/04/29 00:02:15;;;;;;;11.13;8.10;;;;;;;10.96;60.75;95937.31;5029507;28;20613;-76
2022/04/29 00:04:41;;;;;;;13.60;8.77;;;;;;;10.84;61.25;95942.19;5046720;28;20165;-75
2022/04/29 00:07:07;;;;;;;12.93;8.93;;;;;;;10.83;61.29;95934.28;5046624;28;20029;-75
2022/04/29 00:09:33;;;;;;;10.40;8.70;;;;;;;10.80;61.50;95934.63;5046253;28;20040;-76
2022/04/29 00:12:02;;;;;;;11.60;8.65;;;;;;;10.85;61.24;95934.97;5046777;28;20094;-76
2022/04/29 00:14:27;;;;;;;11.45;8.05;;;;;;;10.86;61.39;95933.97;5046483;28;20020;-75
2022/04/29 00:16:52;;;;;;;12.82;9.80;;;;;;;10.88;61.06;95937.31;5064688;28;20035;-75
2022/04/29 00:19:18;;;;;;;13.45;8.32;;;;;;;10.85;61.36;95938.47;5029411;28;20032;-75
2022/04/29 00:21:44;;;;;;;11.02;8.10;;;;;;;10.83;61.27;95932.44;5046842;28;20052;-75
2022/04/29 00:24:10;;;;;;;11.43;8.52;;;;;;;10.83;61.35;95932.44;5029847;28;20032;-75
2022/04/29 00:26:37;;;;;;;13.45;8.68;;;;;;;10.63;61.74;95932.75;5064708;28;20033;-75
2022/04/29 00:29:03;;;;;;;11.77;9.07;;;;;;;10.53;61.86;95936.59;5030372;28;20031;-76
2022/04/29 00:31:28;;;;;;;12.48;8.63;;;;;;;10.51;62.26;95944.81;5045753;28;20021;-74
2022/04/29 00:33:54;;;;;;;10.90;8.35;;;;;;;10.49;62.16;95934.22;5064483;28;20021;-76
2022/04/29 00:36:19;;;;;;;11.00;8.52;;;;;;;10.53;62.13;95933.91;5046439;28;20033;-76
2022/04/29 00:38:45;;;;;;;10.68;7.97;;;;;;;10.42;62.33;95929.66;5068670;28;20056;-76
2022/04/29 00:41:15;;;;;;;12.45;8.02;;;;;;;10.36;62.42;95929.31;5033231;28;20078;-75
2022/04/29 00:43:40;;;;;;;12.45;9.35;;;;;;;10.33;62.60;95926.13;5050958;28;20475;-75
2022/04/29 00:46:08;;;;;;;12.70;8.65;;;;;;;10.27;62.64;95933.81;5067927;28;20036;-75
2022/04/29 00:48:33;;;;;;;11.05;8.15;;;;;;;10.27;63.16;95932.97;5049878;28;20021;-76
2022/04/29 00:50:58;;;;;;;11.00;8.13;;;;;;;10.12;63.02;95928.22;5067960;28;20024;-74
2022/04/29 00:53:24;;;;;;;11.25;8.35;;;;;;;10.15;63.31;95929.75;5067385;28;20021;-76
2022/04/29 00:55:49;;;;;;;10.88;8.57;;;;;;;10.00;63.39;95925.00;5033707;28;20029;-75
2022/04/29 00:58:21;;;;;;;11.98;8.07;;;;;;;9.91;63.92;95927.81;5032606;28;20410;-75
2022/04/29 01:00:46;;;;;;;11.70;8.23;;;;;;;9.87;63.67;95924.59;5050416;28;20394;-76
2022/04/29 01:03:12;;;;;;;10.30;8.85;;;;;;;9.92;64.01;95924.13;5049495;28;20025;-76
2022/04/29 01:05:39;;;;;;;12.77;8.48;;;;;;;9.88;63.71;95924.44;5016489;28;20029;-75
2022/04/29 01:08:05;;;;;;;11.02;8.38;;;;;;;9.86;63.90;95922.94;5033231;28;20097;-76
2022/04/29 01:10:30;;;;;;;11.48;8.02;;;;;;;9.89;63.28;95920.78;5049332;28;20033;-75
2022/04/29 01:12:58;;;;;;;11.27;8.65;;;;;;;9.88;63.41;95923.63;5049806;28;20024;-76
2022/04/29 01:15:23;;;;;;;11.52;7.97;;;;;;;9.93;63.18;95918.59;5015830;28;20032;-75
2022/04/29 01:17:50;;;;;;;12.45;9.18;;;;;;;9.93;63.23;95915.91;5033612;28;20028;-76
2022/04/29 01:20:18;;;;;;;11.20;8.57;;;;;;;9.96;63.21;95904.88;5049299;28;20035;-76
2022/04/29 01:22:43;;;;;;;10.38;7.65;;;;;;;9.89;63.30;95919.94;5049776;28;20028;-74
2022/04/29 01:25:09;;;;;;;10.88;7.90;;;;;;;9.89;62.87;95914.56;5049221;28;20036;-75
2022/04/29 01:27:35;;;;;;;9.75;7.85;;;;;;;9.75;63.48;95914.16;5032431;28;20089;-75
2022/04/29 01:30:02;;;;;;;10.95;7.63;;;;;;;9.75;63.67;95921.38;5067318;28;20479;-75
2022/04/29 01:32:27;;;;;;;10.05;7.80;;;;;;;9.75;63.56;95919.53;5048509;28;20537;-75
2022/04/29 01:34:53;;;;;;;12.77;8.10;;;;;;;9.79;63.24;95912.00;5033276;28;20024;-76
2022/04/29 01:37:18;;;;;;;11.43;8.00;;;;;;;9.81;63.27;95919.88;5048320;28;20028;-76
2022/04/29 01:39:43;;;;;;;13.40;8.07;;;;;;;9.80;63.23;95913.69;5067516;28;20418;-76
2022/04/29 01:42:09;;;;;;;11.43;7.70;;;;;;;9.86;63.15;95904.19;5066467;28;20411;-75
2022/04/29 01:44:34;;;;;;;11.85;8.43;;;;;;;9.87;62.66;95908.53;5048890;28;20550;-76
2022/04/29 01:47:01;;;;;;;10.05;7.40;;;;;;;9.91;62.44;95904.53;5066719;28;20159;-77
2022/04/29 01:49:27;;;;;;;10.38;7.20;;;;;;;9.97;62.02;95900.38;5066625;28;20047;-74
2022/04/29 01:51:54;;;;;;;12.02;7.95;;;;;;;9.95;62.40;95911.25;5067179;28;20478;-76
2022/04/29 01:54:19;;;;;;;10.73;7.53;;;;;;;9.92;62.20;95913.41;5065892;28;20378;-75
2022/04/29 01:56:47;;;;;;;11.35;8.15;;;;;;;9.85;62.31;95903.34;5032624;28;20025;-76
2022/04/29 01:59:13;;;;;;;12.27;8.52;;;;;;;9.84;62.88;95911.53;5048543;28;20078;-75
2022/04/29 02:01:38;;;;;;;10.85;8.05;;;;;;;9.83;63.14;95912.53;5032265;28;20037;-75
2022/04/29 02:04:03;;;;;;;11.43;8.48;;;;;;;9.86;62.99;95909.53;5048426;28;20020;-75
2022/04/29 02:06:29;;;;;;;9.90;7.78;;;;;;;9.88;62.14;95911.03;5048202;28;20040;-75
2022/04/29 02:08:54;;;;;;;9.98;7.50;;;;;;;9.88;62.05;95911.03;5048721;28;20455;-75
2022/04/29 02:11:21;;;;;;;10.25;7.60;;;;;;;9.92;61.92;95913.41;5031142;28;20028;-76
2022/04/29 02:13:46;;;;;;;11.00;8.20;;;;;;;9.84;62.10;95919.56;5048906;28;20040;-76
2022/04/29 02:16:12;;;;;;;10.05;7.57;;;;;;;9.92;61.93;95922.28;5047820;28;20025;-74
2022/04/29 02:18:38;;;;;;;12.55;7.65;;;;;;;9.96;61.82;95917.47;5066839;28;20020;-77
2022/04/29 02:21:03;;;;;;;11.05;7.70;;;;;;;9.88;61.91;95923.63;5048109;28;20451;-76
2022/04/29 02:23:29;;;;;;;10.25;7.40;;;;;;;9.82;62.66;95919.72;5065956;28;19917;-76
2022/04/29 02:25:57;;;;;;;11.13;7.65;;;;;;;9.74;62.75;95915.19;5048374;28;20032;-76
2022/04/29 02:28:22;;;;;;;9.90;7.32;;;;;;;9.72;63.16;95930.56;5065461;28;20035;-75
2022/04/29 02:30:48;;;;;;;10.65;8.00;;;;;;;9.68;63.04;95928.34;5066473;28;20029;-75
2022/04/29 02:33:13;;;;;;;9.65;7.40;;;;;;;9.50;63.54;95927.44;5065115;28;20423;-75
2022/04/29 02:35:39;;;;;;;11.50;7.88;;;;;;;9.58;63.70;95925.78;5066557;28;20040;-75
2022/04/29 02:38:04;;;;;;;11.60;8.18;;;;;;;9.52;63.94;95924.59;5047593;28;20047;-75
2022/04/29 02:40:30;;;;;;;12.05;8.07;;;;;;;9.61;63.36;95926.31;5066061;28;20592;-75
2022/04/29 02:42:55;;;;;;;10.65;8.15;;;;;;;9.66;63.54;95930.38;5047625;28;20033;-76
2022/04/29 02:45:20;;;;;;;12.75;8.52;;;;;;;9.61;63.43;95928.16;5065061;28;20045;-75
2022/04/29 02:47:46;;;;;;;10.75;7.50;;;;;;;9.71;63.59;95934.25;5065936;28;20154;-76
2022/04/29 02:50:11;;;;;;;10.68;7.85;;;;;;;9.70;63.29;95931.72;5065528;28;20087;-76
2022/04/29 02:52:37;;;;;;;12.30;7.85;;;;;;;9.74;63.36;95936.59;5047831;28;20029;-77
2022/04/29 02:55:02;;;;;;;13.00;7.88;;;;;;;9.82;63.16;95934.97;5065112;28;20078;-76
2022/04/29 02:57:28;;;;;;;10.93;7.93;;;;;;;9.83;62.85;95934.81;5048043;28;20111;-76
2022/04/29 02:59:55;;;;;;;10.63;7.35;;;;;;;9.84;62.96;95936.50;5046881;28;20028;-75
2022/04/29 03:02:20;;;;;;;11.73;8.50;;;;;;;9.83;63.40;95929.47;5047571;28;20024;-75
2022/04/29 03:04:45;;;;;;;12.68;8.45;;;;;;;9.88;63.10;95929.81;5030787;28;20461;-76
2022/04/29 03:07:11;;;;;;;12.95;8.10;;;;;;;9.96;62.96;95930.84;5046929;28;20082;-75
2022/04/29 03:09:36;;;;;;;12.45;8.63;;;;;;;9.90;63.13;95937.69;5065454;28;20025;-75
2022/04/29 03:12:02;;;;;;;12.25;8.48;;;;;;;9.94;63.16;95940.88;5046804;28;20426;-76
2022/04/29 03:14:28;;;;;;;14.05;8.70;;;;;;;9.84;63.91;95927.59;5065809;28;20530;-76
2022/04/29 03:16:53;;;;;;;13.82;8.85;;;;;;;9.89;63.92;95936.00;5064940;28;20025;-77
2022/04/29 03:19:19;;;;;;;12.07;9.02;;;;;;;10.00;63.42;95933.03;5047752;28;20032;-78
2022/04/29 03:21:44;;;;;;;15.25;9.25;;;;;;;9.91;63.85;95934.00;5064740;28;20028;-76
2022/04/29 03:24:10;;;;;;;13.73;9.38;;;;;;;9.95;64.19;95935.38;5047229;28;20021;-76
2022/04/29 03:26:40;;;;;;;13.60;9.15;;;;;;;9.98;63.79;95939.53;5047191;28;20029;-74
2022/04/29 03:29:05;;;;;;;13.13;8.75;;;;;;;10.02;63.87;95933.72;5047490;28;20032;-77
2022/04/29 03:31:31;;;;;;;13.13;8.90;;;;;;;10.02;64.19;95928.38;5014353;28;20028;-76
2022/04/29 03:33:56;;;;;;;13.93;9.90;;;;;;;10.00;64.47;95932.19;5046449;28;20028;-76
2022/04/29 03:36:22;;;;;;;16.45;10.30;;;;;;;9.98;64.58;95934.19;5065561;28;20031;-76
2022/04/29 03:38:47;;;;;;;14.73;9.40;;;;;;;10.01;65.24;95937.41;5064585;28;20028;-76
2022/04/29 03:41:13;;;;;;;13.98;9.63;;;;;;;10.04;64.41;95935.41;5046865;28;20032;-74
2022/04/29 03:43:38;;;;;;;16.52;9.48;;;;;;;10.04;64.10;95938.09;5064709;28;20407;-76
2022/04/29 03:46:05;;;;;;;14.30;9.85;;;;;;;9.92;64.25;95938.38;5064148;28;20515;-80
2022/04/29 03:49:35;;;;;;;15.50;9.75;;;;;;;9.96;64.28;95941.56;5065236;28;20414;-76
2022/04/29 03:51:16;;;;;;;14.90;10.13;;;;;;;9.82;64.94;95951.06;5064214;28;20051;-76
2022/04/29 03:53:41;;;;;;;14.80;10.15;;;;;;;9.82;64.54;95959.09;5046899;28;20020;-76
2022/04/29 03:56:06;;;;;;;16.77;10.57;;;;;;;9.82;64.24;95951.06;5013535;28;20024;-75
2022/04/29 03:58:32;;;;;;;16.42;9.65;;;;;;;9.85;64.12;95956.09;5046952;28;20230;-76
2022/04/29 04:00:57;;;;;;;14.60;10.18;;;;;;;9.80;64.31;95958.41;5064700;28;20020;-77
2022/04/29 04:03:23;;;;;;;16.73;10.30;;;;;;;9.79;64.30;95956.72;5046332;28;20036;-76
2022/04/29 04:08:35;;;;;;;14.05;9.35;;;;;;;9.68;64.55;95960.50;5048877;28;20044;-76
2022/04/29 04:11:01;;;;;;;17.17;10.90;;;;;;;9.61;64.57;95960.28;5047783;28;20028;-75
2022/04/29 04:13:26;;;;;;;18.67;11.15;;;;;;;9.66;64.66;95974.06;5034097;28;20058;-76
2022/04/29 04:15:52;;;;;;;19.05;10.82;;;;;;;9.62;64.97;95962.00;5050500;28;20487;-74
2022/04/29 04:18:17;;;;;;;17.95;10.68;;;;;;;9.65;65.15;95964.34;5050523;28;20044;-75
2022/04/29 04:20:43;;;;;;;16.17;10.85;;;;;;;9.69;64.94;95959.53;5067879;28;20032;-77
2022/04/29 04:23:09;;;;;;;20.25;11.68;;;;;;;9.75;65.03;95962.38;5050947;28;20074;-76
2022/04/29 04:25:34;;;;;;;15.52;10.75;;;;;;;9.70;65.13;95959.38;5033601;28;20058;-75
2022/04/29 04:28:00;;;;;;;18.02;12.07;;;;;;;9.70;65.75;95954.00;5050895;28;20028;-75
2022/04/29 04:30:25;;;;;;;15.68;10.27;;;;;;;9.73;65.98;95956.38;5068111;28;20024;-76
2022/04/29 04:32:50;;;;;;;15.57;10.68;;;;;;;9.72;66.18;95968.06;5068578;28;20396;-75
2022/04/29 04:35:17;;;;;;;14.05;10.02;;;;;;;9.76;66.15;95961.41;5050221;28;20453;-75
2022/04/29 04:37:43;;;;;;;13.05;9.55;;;;;;;9.83;66.14;95963.44;5050287;28;20107;-76
2022/04/29 04:40:10;;;;;;;18.02;11.10;;;;;;;9.84;65.66;95965.13;5050515;28;20491;-75
2022/04/29 04:42:43;;;;;;;16.85;11.43;;;;;;;9.92;65.32;95969.66;5049198;28;20036;-75
2022/04/29 04:45:09;;;;;;;16.67;10.63;;;;;;;9.98;65.03;95969.88;5050465;28;20048;-75
2022/04/29 04:47:34;;;;;;;14.95;10.57;;;;;;;10.11;64.85;95960.53;5049572;28;20112;-77
2022/04/29 04:50:00;;;;;;;19.23;10.25;;;;;;;10.47;63.60;95968.44;5050246;28;20028;-77
2022/04/29 04:52:25;;;;;;;15.27;10.63;;;;;;;10.49;63.52;95969.09;5067796;28;20024;-75
2022/04/29 04:54:50;;;;;;;16.73;10.40;;;;;;;10.61;63.30;95971.47;5067851;28;20093;-75
2022/04/29 04:57:16;;;;;;;18.10;11.18;;;;;;;10.64;63.64;95965.78;5050141;28;20025;-75
2022/04/29 04:59:41;;;;;;;15.52;10.60;;;;;;;10.84;63.26;95965.47;5032752;28;20479;-76
2022/04/29 05:02:07;;;;;;;17.08;10.68;;;;;;;11.07;61.77;95967.53;5049858;28;20039;-76
2022/04/29 05:04:32;;;;;;;15.98;10.05;;;;;;;11.26;61.31;95966.34;5049206;28;20031;-75
2022/04/29 05:06:58;;;;;;;13.77;10.18;;;;;;;11.44;60.28;95971.56;5068454;28;20036;-75
2022/04/29 05:09:23;;;;;;;14.35;10.20;;;;;;;11.59;60.32;95969.00;5032798;28;20442;-77
2022/04/29 05:11:48;;;;;;;17.30;11.00;;;;;;;11.71;60.08;95968.66;5033507;28;20025;-75
2022/04/29 05:14:14;;;;;;;14.13;9.57;;;;;;;11.82;59.86;95962.91;5049479;28;20184;-77
2022/04/29 05:16:39;;;;;;;16.50;10.35;;;;;;;11.96;59.91;95964.03;5033012;28;20033;-77
2022/04/29 05:19:05;;;;;;;15.52;10.77;;;;;;;12.08;59.69;95961.88;5049736;28;20028;-78
2022/04/29 05:21:30;;;;;;;16.27;10.90;;;;;;;12.32;59.53;95957.41;5066998;28;20020;-78
2022/04/29 05:23:56;;;;;;;16.25;11.00;;;;;;;12.61;59.01;95953.22;5049563;28;20025;-80
2022/04/29 05:26:22;;;;;;;16.67;10.98;;;;;;;12.80;58.74;95950.25;5066701;28;20414;-75
2022/04/29 05:28:47;;;;;;;15.23;10.07;;;;;;;12.96;58.33;95957.38;5050041;28;20482;-76
2022/04/29 05:31:13;;;;;;;16.95;11.07;;;;;;;13.03;57.82;95957.47;5049006;28;20029;-79
2022/04/29 05:33:38;;;;;;;16.80;11.00;;;;;;;13.29;57.71;95961.66;5032839;28;20068;-76
2022/04/29 05:36:05;;;;;;;15.18;11.38;;;;;;;13.44;57.04;95949.09;5032934;28;20028;-75
2022/04/29 05:43:58;;;;;;;17.73;11.02;;;;;;;14.04;55.90;95951.03;5067105;28;20059;-76
2022/04/29 05:46:23;;;;;;;17.33;10.80;;;;;;;14.15;55.69;95949.75;5067274;28;20053;-78
2022/04/29 05:48:49;;;;;;;15.50;10.77;;;;;;;14.07;56.08;95941.75;5032323;28;20483;-75
2022/04/29 05:51:14;;;;;;;16.33;11.25;;;;;;;13.76;57.22;95950.84;5048650;28;20082;-76
2022/04/29 05:53:40;;;;;;;13.30;9.82;;;;;;;13.55;57.10;95955.06;5049155;28;20025;-77
2022/04/29 05:56:05;;;;;;;14.25;9.13;;;;;;;13.44;56.63;95946.41;5066451;28;20052;-76
2022/04/29 05:58:30;;;;;;;12.10;8.32;;;;;;;13.37;56.58;95953.53;5067180;28;20028;-77
2022/04/29 06:00:58;;;;;;;14.60;9.32;;;;;;;13.34;57.04;95953.88;5048230;28;20032;-77
2022/04/29 06:03:23;;;;;;;13.68;9.77;;;;;;;13.26;57.64;95962.03;5049033;28;20045;-76
2022/04/29 06:05:49;;;;;;;12.82;8.52;;;;;;;13.34;57.13;95972.75;5031944;28;20079;-78
2022/04/29 06:08:14;;;;;;;14.75;8.82;;;;;;;13.48;56.56;95968.41;5031797;28;20039;-77
2022/04/29 06:10:40;;;;;;;13.68;9.00;;;;;;;13.66;56.13;95968.13;5048513;28;20032;-76
2022/04/29 06:13:05;;;;;;;13.25;9.68;;;;;;;13.70;55.92;95963.19;5066073;28;20037;-76
2022/04/29 06:15:31;;;;;;;13.63;9.18;;;;;;;13.70;56.27;95972.09;5048606;28;20990;-77
2022/04/29 06:17:56;;;;;;;12.55;9.23;;;;;;;13.68;55.85;95968.78;5065826;28;20480;-77
2022/04/29 06:20:22;;;;;;;13.15;8.93;;;;;;;13.73;55.86;95973.63;5066603;28;20017;-79
2022/04/29 06:22:47;;;;;;;13.57;8.95;;;;;;;13.89;54.79;95975.31;5031281;28;20028;-76
2022/04/29 06:25:13;;;;;;;12.35;9.02;;;;;;;13.86;55.03;95972.13;5066734;28;20024;-76
2022/04/29 06:27:38;;;;;;;13.23;8.32;;;;;;;13.89;54.53;95975.31;5065752;28;20024;-77
2022/04/29 06:30:04;;;;;;;12.93;9.40;;;;;;;14.21;53.71;95985.91;5066053;28;20021;-76
2022/04/29 06:32:29;;;;;;;14.88;8.82;;;;;;;14.16;54.15;95970.28;5047790;28;20028;-76
2022/04/29 06:34:55;;;;;;;12.52;9.25;;;;;;;14.25;54.16;95978.28;5046855;28;20103;-77
2022/04/29 06:37:21;;;;;;;11.45;8.65;;;;;;;14.32;53.96;95981.91;5048131;28;20774;-75
2022/04/29 06:39:46;;;;;;;11.00;8.40;;;;;;;14.36;53.84;95983.22;5065531;28;20443;-77
2022/04/29 06:42:12;;;;;;;16.48;9.13;;;;;;;14.45;53.36;95979.38;5066332;28;20048;-76
2022/04/29 06:44:37;;;;;;;11.98;8.32;;;;;;;14.55;53.19;95980.94;5064850;28;20048;-76
2022/04/29 06:47:03;;;;;;;12.85;9.13;;;;;;;14.80;52.88;95978.78;5048210;28;20021;-79
2022/04/29 06:49:29;;;;;;;13.77;9.52;;;;;;;14.88;53.39;95969.72;5047505;28;20025;-77
2022/04/29 06:51:55;;;;;;;12.00;9.20;;;;;;;15.15;52.36;95964.63;5047759;28;20056;-77
2022/04/29 06:54:20;;;;;;;10.90;8.38;;;;;;;15.61;51.58;95967.91;5031362;28;20083;-78
2022/04/29 06:56:45;;;;;;;11.75;9.07;;;;;;;15.57;51.66;95966.66;5064933;28;20017;-76
2022/04/29 06:59:11;;;;;;;11.77;8.65;;;;;;;15.74;51.29;95956.38;5048310;28;20020;-76
2022/04/29 07:01:36;;;;;;;12.15;8.93;;;;;;;15.90;51.21;95965.19;5046686;28;20028;-78
2022/04/29 07:04:02;;;;;;;12.35;9.10;;;;;;;15.72;51.07;95963.84;5065950;28;20036;-77
2022/04/29 07:06:27;;;;;;;12.90;10.23;;;;;;;16.03;50.33;95962.63;5046992;28;20024;-78
2022/04/29 07:08:53;;;;;;;12.25;9.50;;;;;;;16.02;50.77;95960.97;5047623;28;20025;-77
2022/04/29 07:11:18;;;;;;;11.57;8.68;;;;;;;15.88;50.40;95954.59;5047120;28;20036;-77
2022/04/29 07:13:44;;;;;;;12.60;8.90;;;;;;;16.06;50.07;95961.38;5030158;28;20025;-78
2022/04/29 07:16:09;;;;;;;11.13;7.93;;;;;;;16.18;48.85;95951.69;5047605;28;20265;-77
2022/04/29 07:18:36;;;;;;;12.48;8.52;;;;;;;16.15;49.32;95951.25;5030056;28;20112;-75
2022/04/29 07:21:04;;;;;;;11.18;7.90;;;;;;;16.30;48.37;95953.81;5047907;28;20099;-75
2022/04/29 07:23:29;;;;;;;9.63;8.40;;;;;;;16.42;48.18;95945.97;5046259;28;20098;-75
2022/04/29 07:25:55;;;;;;;10.13;7.88;;;;;;;16.60;47.29;95942.72;5065488;28;20025;-75
2022/04/29 07:28:21;;;;;;;10.57;8.60;;;;;;;16.66;46.77;95930.22;5046697;28;20406;-77
2022/04/29 07:30:47;;;;;;;10.10;7.78;;;;;;;16.77;46.75;95942.34;5030081;28;20135;-78
2022/04/29 07:33:13;;;;;;;10.85;7.93;;;;;;;16.48;47.50;95941.59;5029915;28;20424;-77
2022/04/29 07:43:50;;;;;;;6.90;5.68;;;;;;;16.19;45.07;95949.81;5048905;28;20047;-76
2022/04/29 07:46:16;;;;;;;8.13;5.95;;;;;;;16.49;43.96;95951.41;5046826;28;20423;-77
2022/04/29 07:48:42;;;;;;;8.60;6.55;;;;;;;16.80;44.33;95941.91;5046079;28;20020;-77
2022/04/29 07:51:07;;;;;;;10.18;5.85;;;;;;;16.75;43.48;95936.31;5065030;28;20058;-76
2022/04/29 07:53:34;;;;;;;8.07;5.22;;;;;;;16.56;43.70;95944.13;5064098;28;20388;-75
2022/04/29 07:55:59;;;;;;;7.50;5.80;;;;;;;16.49;44.46;95938.69;5064846;28;20028;-75
2022/04/29 07:58:25;;;;;;;7.78;6.15;;;;;;;16.26;45.88;95942.56;5046184;28;20089;-78
2022/04/29 08:00:51;;;;;;;10.52;7.65;;;;;;;16.02;46.96;95950.16;5029004;28;20336;-76
2022/04/29 08:03:16;;;;;;;12.00;7.30;;;;;;;15.84;47.50;95945.19;5064531;28;20499;-78
2022/04/29 08:05:42;;;;;;;8.60;7.35;;;;;;;15.68;47.82;95946.34;5029473;28;20025;-77
2022/04/29 08:08:07;;;;;;;10.63;6.65;;;;;;;15.57;47.79;95947.72;5064074;28;20032;-77
2022/04/29 08:10:33;;;;;;;8.88;6.72;;;;;;;15.44;47.61;95945.75;5028765;28;20025;-75
2022/04/29 08:13:02;;;;;;;10.02;6.28;;;;;;;15.39;47.34;95938.22;5030255;28;20112;-76
2022/04/29 08:15:29;;;;;;;9.75;6.32;;;;;;;15.41;47.38;95933.44;5063262;28;20362;-76
2022/04/29 08:17:54;;;;;;;8.88;6.20;;;;;;;15.48;46.69;95935.34;5029750;28;20554;-76
2022/04/29 08:20:20;;;;;;;11.52;5.80;;;;;;;15.47;46.66;95944.50;5013460;28;20130;-76
2022/04/29 08:22:46;;;;;;;7.75;6.05;;;;;;;15.49;46.66;95943.28;5029598;28;20036;-77
2022/04/29 08:25:11;;;;;;;8.05;5.90;;;;;;;15.59;45.98;95937.53;5046413;28;20074;-75
2022/04/29 08:27:37;;;;;;;7.53;5.72;;;;;;;15.66;45.24;95935.72;5029323;28;20475;-75
2022/04/29 08:30:06;;;;;;;8.98;5.82;;;;;;;15.68;45.16;95933.66;5063779;28;20105;-76
2022/04/29 08:32:45;;;;;;;9.38;5.80;;;;;;;15.77;45.26;95933.50;5028554;28;20392;-77
2022/04/29 08:35:11;;;;;;;7.50;5.63;;;;;;;15.79;44.46;95934.13;5030279;28;20515;-75
2022/04/29 08:37:40;;;;;;;7.80;5.80;;;;;;;15.85;44.62;95936.03;5064218;28;20031;-75
2022/04/29 08:40:06;;;;;;;7.22;5.82;;;;;;;15.88;43.87;95935.66;5029058;28;20403;-75
2022/04/29 08:42:37;;;;;;;7.40;5.50;;;;;;;16.02;43.44;95931.22;5046255;28;20024;-77
2022/04/29 08:45:06;;;;;;;9.35;5.88;;;;;;;16.11;43.66;95929.16;5029475;28;20049;-76
2022/04/29 08:47:34;;;;;;;7.85;5.32;;;;;;;16.20;43.16;95935.25;5047305;28;20407;-77
2022/04/29 08:50:00;;;;;;;9.13;5.80;;;;;;;16.63;42.80;95915.22;5029294;28;20028;-76
2022/04/29 08:52:25;;;;;;;10.43;6.78;;;;;;;17.00;42.12;95924.88;5013303;28;20047;-77
2022/04/29 09:00:22;;;;;;;8.57;5.65;;;;;;;16.74;41.58;95911.09;5068678;28;20325;-75
2022/04/29 09:02:47;;;;;;;8.52;6.07;;;;;;;16.86;41.00;95908.59;5049465;28;20028;-77
2022/04/29 09:05:13;;;;;;;7.88;5.63;;;;;;;16.80;40.97;95904.00;5068017;28;20032;-76
2022/04/29 09:08:00;;;;;;;7.35;5.53;;;;;;;16.74;40.95;95900.25;5049689;28;20447;-75
2022/04/29 09:10:35;;;;;;;7.85;5.60;;;;;;;16.82;41.17;95904.63;5049725;28;20025;-76
2022/04/29 09:13:11;;;;;;;7.15;5.47;;;;;;;16.84;40.83;95899.84;5050479;28;20064;-76
2022/04/29 09:15:37;;;;;;;7.50;5.88;;;;;;;16.77;40.56;95897.13;5049155;28;20036;-76
2022/04/29 09:18:03;;;;;;;7.32;5.72;;;;;;;16.72;40.83;95893.38;5033225;28;20028;-75
2022/04/29 09:20:28;;;;;;;9.10;6.18;;;;;;;16.71;41.00;95891.69;5049417;28;20036;-78
2022/04/29 09:22:54;;;;;;;10.25;5.93;;;;;;;16.68;40.86;95898.38;5049452;28;20032;-76
2022/04/29 09:25:19;;;;;;;6.38;4.57;;;;;;;16.71;40.09;95894.41;5066957;28;20036;-76
2022/04/29 09:27:55;;;;;;;7.50;5.13;;;;;;;16.75;40.58;95893.78;5032554;28;20036;-75
2022/04/29 09:30:40;;;;;;;9.65;5.10;;;;;;;16.70;40.78;95887.31;5033180;28;20055;-77
2022/04/29 09:33:18;;;;;;;8.35;5.57;;;;;;;16.79;42.20;95895.06;5049006;28;20016;-78
2022/04/29 09:35:43;;;;;;;7.60;5.63;;;;;;;16.90;40.48;95893.63;5051443;28;20466;-75
2022/04/29 09:40:54;;;;;;;10.35;5.60;;;;;;;16.93;40.72;95887.78;5066934;28;20070;-76
2022/04/29 09:43:37;;;;;;;7.97;5.57;;;;;;;16.91;40.50;95892.56;5032772;28;20028;-76
2022/04/29 09:46:12;;;;;;;7.45;5.18;;;;;;;16.87;40.70;95893.19;5066417;28;20044;-77
2022/04/29 09:48:53;;;;;;;7.15;5.75;;;;;;;16.95;41.05;95892.16;5067682;28;20467;-76
2022/04/29 09:51:37;;;;;;;7.85;5.78;;;;;;;16.87;41.72;95891.31;5067052;28;20032;-74
2022/04/29 09:54:45;;;;;;;8.85;5.82;;;;;;;16.78;40.99;95901.50;5048607;28;20032;-75
2022/04/29 09:57:14;;;;;;;5.85;4.75;;;;;;;16.76;39.87;95905.47;5043926;28;20044;-76
2022/04/29 10:00:06;;;;;;;8.30;6.32;;;;;;;16.80;41.54;95891.31;5066759;28;20504;-77
2022/04/29 10:02:32;;;;;;;9.02;5.25;;;;;;;16.77;41.54;95901.72;5044179;28;20449;-75
2022/04/29 10:04:57;;;;;;;8.57;5.90;;;;;;;16.68;42.49;95891.06;5067110;28;20024;-76
2022/04/29 10:07:24;;;;;;;7.65;6.10;;;;;;;16.65;42.53;95886.06;5065854;28;20043;-76
2022/04/29 10:09:54;;;;;;;7.65;6.10;;;;;;;16.67;43.00;95883.97;5067075;28;20027;-76
2022/04/29 10:12:22;;;;;;;7.57;6.30;;;;;;;16.77;42.76;95886.28;5048154;28;20111;-75
2022/04/29 10:14:48;;;;;;;12.25;6.18;;;;;;;16.82;41.99;95880.25;5032500;28;20074;-76
2022/04/29 10:23:06;;;;;;;8.93;6.07;;;;;;;16.88;41.74;95868.59;5051886;28;20035;-76
2022/04/29 10:25:31;;;;;;;10.13;6.45;;;;;;;16.99;41.97;95879.88;5047886;28;20109;-76
2022/04/29 10:27:57;;;;;;;9.20;6.10;;;;;;;17.13;41.68;95873.47;5032370;28;20444;-75
2022/04/29 10:30:34;;;;;;;7.82;5.97;;;;;;;17.14;41.46;95871.56;5031734;28;20028;-75
2022/04/29 10:33:00;;;;;;;7.50;5.70;;;;;;;17.08;41.54;95867.81;5065762;28;20056;-75
2022/04/29 10:35:45;;;;;;;10.10;6.30;;;;;;;17.06;41.38;95869.88;5066321;28;20056;-74
2022/04/29 10:38:14;;;;;;;8.23;6.35;;;;;;;17.02;42.24;95872.16;5066296;28;20028;-76
2022/04/29 10:40:39;;;;;;;13.05;5.68;;;;;;;16.89;40.59;95872.16;5048210;28;20025;-77
2022/04/29 10:43:09;;;;;;;7.75;5.93;;;;;;;16.86;40.90;95867.97;5065959;28;20028;-76
2022/04/29 10:45:35;;;;;;;12.57;10.15;;;;;;;16.92;41.63;95858.19;5065234;28;20503;-76
2022/04/29 10:48:28;;;;;;;7.53;6.10;;;;;;;16.72;41.17;95869.81;5015135;28;20120;-75
2022/04/29 10:50:54;;;;;;;6.65;5.43;;;;;;;16.78;40.73;95869.00;5047730;28;20095;-76
2022/04/29 10:53:21;;;;;;;7.22;5.75;;;;;;;16.84;41.18;95861.94;5066405;28;20029;-74
2022/04/29 10:55:47;;;;;;;16.73;7.47;;;;;;;16.84;40.38;95858.38;5030244;28;20082;-78
2022/04/29 10:58:19;;;;;;;8.38;5.70;;;;;;;17.00;40.73;95849.03;5066007;28;20418;-77
2022/04/29 11:01:16;;;;;;;6.80;5.75;;;;;;;17.17;40.29;95858.44;5048144;28;20020;-77
2022/04/29 11:03:44;;;;;;;7.00;5.70;;;;;;;17.25;39.66;95851.16;5046690;28;20482;-78
2022/04/29 11:06:13;;;;;;;8.02;5.70;;;;;;;17.28;38.95;95848.03;5066366;28;20103;-78
2022/04/29 11:08:39;;;;;;;6.75;5.28;;;;;;;17.30;38.48;95840.50;5031437;28;20021;-76
2022/04/29 11:11:04;;;;;;;7.25;5.35;;;;;;;17.25;38.59;95841.13;5031263;28;20410;-76
2022/04/29 11:13:34;;;;;;;6.90;5.53;;;;;;;17.36;38.77;95834.22;5047600;28;20025;-76
2022/04/29 11:16:12;;;;;;;7.10;5.38;;;;;;;17.49;38.41;95829.84;5031015;28;20023;-76
2022/04/29 11:18:38;;;;;;;7.10;5.70;;;;;;;17.58;39.18;95828.59;5048058;28;20028;-77
2022/04/29 11:26:48;;;;;;;7.10;5.68;;;;;;;17.75;38.07;95820.00;5050460;28;20035;-75
2022/04/29 11:29:14;;;;;;;7.10;5.50;;;;;;;17.88;40.25;95814.50;5046990;28;20029;-75
2022/04/29 11:31:40;;;;;;;7.03;5.75;;;;;;;18.02;38.90;95814.47;5047528;28;20024;-78
2022/04/29 11:34:07;;;;;;;8.77;5.82;;;;;;;18.04;38.13;95815.91;5064607;28;20071;-74
2022/04/29 11:36:32;;;;;;;7.22;5.43;;;;;;;18.06;39.39;95810.28;5065499;28;20144;-75
2022/04/29 11:38:58;;;;;;;7.38;6.35;;;;;;;18.02;39.36;95809.06;5046518;28;20484;-74
2022/04/29 11:41:30;;;;;;;9.43;6.50;;;;;;;18.14;38.20;95806.50;5030523;28;20489;-77
2022/04/29 11:43:56;;;;;;;8.45;5.82;;;;;;;18.26;37.81;95796.66;5047749;28;20100;-77
2022/04/29 11:46:21;;;;;;;8.23;5.72;;;;;;;18.38;37.36;95798.66;5064080;28;20048;-77
2022/04/29 11:48:57;;;;;;;11.75;6.13;;;;;;;18.34;38.47;95798.28;5046978;28;20028;-78
2022/04/29 11:51:23;;;;;;;7.40;6.30;;;;;;;18.49;38.50;95794.44;5047090;28;20548;-78
2022/04/29 11:53:55;;;;;;;7.43;5.75;;;;;;;18.59;39.40;95794.78;5030732;28;20028;-77
2022/04/29 11:56:21;;;;;;;7.93;5.25;;;;;;;18.79;37.98;95788.38;5046770;28;20104;-77
2022/04/29 11:58:46;;;;;;;10.18;5.97;;;;;;;18.94;37.37;95795.38;5046739;28;20037;-77
2022/04/29 12:01:14;;;;;;;6.63;5.45;;;;;;;19.07;38.31;95789.81;5047145;28;20021;-75
2022/04/29 12:03:45;;;;;;;7.28;5.47;;;;;;;19.24;37.70;95781.97;5046439;28;20056;-75
2022/04/29 12:06:11;;;;;;;7.32;5.40;;;;;;;19.43;36.00;95787.44;5030571;28;20503;-78